Terminal Aerodrome Forecast
Issued by NWS Tulsa, OK

Current Version | Previous Version | Text Only | Print | Product List | Glossary On
Versions: 1 2 3 4 5 6 7 8 9 10 11 12 13 14 15
000
FTUS44 KTSA 171100
TAFTUL
TAF
KTUL 171123Z 1712/1812 00000KT P6SM OVC250
     FM171400 08007KT P6SM BKN150
     FM172100 04007KT P6SM BKN100
     FM180300 01006KT P6SM SCT250=

USA.gov is the U.S. government's official web portal to all federal, state and local government web resources and services.